Time;durP1;ratioP1;P1;durP2;ratioP2;P2;SDS_P1;SDS_P2;PMS_P1;PMS_P2;Temp;Humidity;BMP_temperature;BMP_pressure;BME280_temperature;BME280_humidity;BME280_pressure;Samples;Min_cycle;Max_cycle;Signal;HPM_P1;HPM_P2
2021/07/14 00:00:59;;;;;;;23.38;5.70;;;21.50;99.90;;;;;;5011641;28;20018;-76
2021/07/14 00:03:25;;;;;;;22.92;5.55;;;21.50;99.90;;;;;;5010601;28;20026;-74
2021/07/14 00:05:51;;;;;;;25.77;5.30;;;21.50;99.90;;;;;;5009871;28;20030;-75
2021/07/14 00:08:17;;;;;;;28.00;6.38;;;21.50;99.90;;;;;;5009656;28;20042;-75
2021/07/14 00:10:42;;;;;;;22.02;5.05;;;21.40;99.90;;;;;;5013347;28;20006;-76
2021/07/14 00:24:02;;;;;;;22.17;5.35;;;21.40;99.90;;;;;;5015542;28;20173;-76
2021/07/14 00:26:28;;;;;;;22.98;5.25;;;21.30;99.90;;;;;;5015584;28;20402;-75
2021/07/14 00:28:54;;;;;;;38.40;7.32;;;21.30;99.90;;;;;;5014757;28;20026;-74
2021/07/14 00:31:20;;;;;;;28.17;6.10;;;21.20;99.90;;;;;;5013754;28;20030;-77
2021/07/14 00:33:47;;;;;;;30.60;5.40;;;21.30;99.90;;;;;;5013306;28;20482;-77
2021/07/14 00:36:13;;;;;;;35.38;6.53;;;21.20;99.90;;;;;;5013967;28;20022;-79
2021/07/14 00:38:39;;;;;;;43.92;7.85;;;21.20;99.90;;;;;;5013995;28;20060;-79
2021/07/14 00:41:06;;;;;;;32.75;7.03;;;21.10;99.90;;;;;;5017796;28;20026;-79
2021/07/14 00:43:33;;;;;;;28.00;5.78;;;21.00;99.90;;;;;;5024502;28;20101;-79
2021/07/14 00:46:25;;;;;;;39.22;5.78;;;21.00;99.90;;;;;;5014072;28;20489;-75
2021/07/14 00:48:55;;;;;;;24.70;6.13;;;21.00;99.90;;;;;;5003370;28;20050;-76
2021/07/14 00:51:21;;;;;;;27.30;8.20;;;21.00;99.90;;;;;;5013948;28;20033;-76
2021/07/14 00:53:49;;;;;;;35.90;7.95;;;21.10;99.90;;;;;;5013951;28;20116;-75
2021/07/14 00:56:15;;;;;;;26.13;6.93;;;21.20;99.90;;;;;;5013876;28;20030;-78
2021/07/14 00:58:41;;;;;;;32.38;6.97;;;21.20;99.90;;;;;;5013800;28;20113;-76
2021/07/14 01:01:06;;;;;;;29.40;6.28;;;21.30;99.90;;;;;;5013417;28;20034;-75
2021/07/14 01:03:39;;;;;;;29.88;7.70;;;21.40;99.90;;;;;;5012012;28;20033;-77
2021/07/14 01:06:11;;;;;;;35.95;6.85;;;21.40;99.90;;;;;;5011798;28;20041;-76
2021/07/14 01:08:46;;;;;;;35.00;7.28;;;21.40;99.90;;;;;;5012551;28;20025;-76
2021/07/14 01:11:18;;;;;;;29.08;7.30;;;21.40;99.90;;;;;;5012322;28;20014;-75
2021/07/14 01:13:51;;;;;;;27.13;7.47;;;21.50;99.90;;;;;;5012454;28;20034;-75
2021/07/14 01:16:22;;;;;;;25.02;6.47;;;21.50;99.90;;;;;;5017931;28;20022;-76
2021/07/14 01:19:09;;;;;;;31.10;6.47;;;21.50;99.90;;;;;;5033216;28;20033;-75
2021/07/14 01:21:40;;;;;;;30.40;6.05;;;21.50;99.90;;;;;;5027103;28;20031;-73
2021/07/14 01:24:15;;;;;;;24.08;5.97;;;21.50;99.90;;;;;;5015823;28;20060;-74
2021/07/14 01:26:53;;;;;;;20.10;5.95;;;21.60;99.90;;;;;;5033315;28;20044;-74
2021/07/14 01:29:20;;;;;;;28.23;6.78;;;21.60;99.90;;;;;;5032894;28;20926;-73
2021/07/14 01:31:50;;;;;;;19.73;6.35;;;21.60;99.90;;;;;;5033077;28;20524;-74
2021/07/14 01:34:18;;;;;;;23.95;5.82;;;21.60;99.90;;;;;;5032762;28;20044;-74
2021/07/14 01:36:47;;;;;;;18.10;5.38;;;21.50;99.90;;;;;;5032754;28;20071;-73
2021/07/14 01:39:14;;;;;;;27.90;5.38;;;21.50;99.90;;;;;;5032925;28;20055;-74
2021/07/14 01:41:43;;;;;;;23.55;5.78;;;21.50;99.90;;;;;;5033128;28;20080;-75
2021/07/14 01:44:09;;;;;;;25.23;5.72;;;21.40;99.90;;;;;;5033146;28;20109;-75
2021/07/14 01:46:37;;;;;;;17.98;5.53;;;21.50;99.90;;;;;;5032822;28;20033;-78
2021/07/14 01:49:16;;;;;;;16.15;5.05;;;21.40;99.90;;;;;;5033425;28;20034;-74
2021/07/14 01:51:48;;;;;;;23.15;5.93;;;21.40;99.90;;;;;;5032242;28;20018;-74
2021/07/14 01:54:15;;;;;;;15.50;5.50;;;21.40;99.90;;;;;;5032404;28;20453;-75
2021/07/14 01:56:44;;;;;;;23.20;5.75;;;21.30;99.90;;;;;;5032563;28;20060;-78
2021/07/14 01:59:11;;;;;;;27.38;5.13;;;21.30;99.90;;;;;;5032036;28;20037;-77
2021/07/14 02:01:39;;;;;;;20.08;4.80;;;21.30;99.90;;;;;;5029727;28;20531;-76
2021/07/14 02:06:51;;;;;;;16.75;4.75;;;21.50;99.90;;;;;;5033207;28;20044;-77
2021/07/14 02:09:17;;;;;;;13.40;4.32;;;21.50;99.90;;;;;;5033005;28;20063;-76
2021/07/14 02:11:49;;;;;;;19.52;5.18;;;21.50;99.90;;;;;;5032591;28;20116;-76
2021/07/14 02:14:22;;;;;;;13.63;4.15;;;21.60;99.90;;;;;;5032978;28;20034;-74
2021/07/14 02:16:50;;;;;;;19.95;4.28;;;21.60;99.90;;;;;;5033123;28;20021;-76
2021/07/14 02:19:19;;;;;;;14.85;4.50;;;21.60;99.90;;;;;;5033179;28;20110;-77
2021/07/14 02:21:45;;;;;;;19.48;4.60;;;21.60;99.90;;;;;;5032887;28;20115;-75
2021/07/14 02:24:13;;;;;;;23.02;5.40;;;21.60;99.90;;;;;;5032764;28;20141;-76
2021/07/14 02:26:41;;;;;;;9.57;3.80;;;21.50;99.90;;;;;;5033180;28;20438;-75
2021/07/14 02:29:07;;;;;;;14.57;4.43;;;21.50;99.90;;;;;;5032532;28;20021;-76
2021/07/14 02:31:33;;;;;;;17.98;4.10;;;21.50;99.90;;;;;;5032253;28;20474;-75
2021/07/14 02:34:00;;;;;;;13.55;4.00;;;21.50;99.90;;;;;;5032248;28;20483;-76
2021/07/14 02:36:30;;;;;;;15.95;4.03;;;21.50;99.90;;;;;;5032772;28;20029;-76
2021/07/14 02:39:01;;;;;;;12.20;3.60;;;21.50;99.90;;;;;;5032261;28;20147;-74
2021/07/14 02:41:33;;;;;;;21.50;4.20;;;21.40;99.90;;;;;;5032741;28;20542;-75
2021/07/14 02:44:05;;;;;;;16.40;4.07;;;21.30;99.90;;;;;;5032746;28;20402;-74
2021/07/14 02:46:35;;;;;;;13.48;4.38;;;21.30;99.90;;;;;;5032829;28;20033;-73
2021/07/14 02:49:04;;;;;;;11.20;4.07;;;21.30;99.90;;;;;;5032521;28;20030;-75
2021/07/14 02:51:33;;;;;;;16.33;3.90;;;21.30;99.90;;;;;;5032387;28;20112;-76
2021/07/14 02:54:05;;;;;;;16.02;4.55;;;21.30;99.90;;;;;;5032448;28;20505;-74
2021/07/14 02:56:33;;;;;;;17.48;4.40;;;21.30;99.90;;;;;;5032530;28;20025;-74
2021/07/14 02:59:04;;;;;;;16.23;4.53;;;21.40;99.90;;;;;;5032179;28;20359;-78
2021/07/14 03:01:30;;;;;;;11.75;3.83;;;21.40;99.90;;;;;;5032133;28;20043;-74
2021/07/14 03:03:58;;;;;;;13.95;4.13;;;21.40;99.90;;;;;;5032209;28;20406;-74
2021/07/14 03:06:24;;;;;;;19.33;4.10;;;21.50;99.90;;;;;;5031751;28;20056;-73
2021/07/14 03:08:51;;;;;;;10.75;4.35;;;21.60;99.90;;;;;;5031865;28;20076;-78
2021/07/14 03:11:18;;;;;;;18.17;4.53;;;21.60;99.90;;;;;;5032245;28;20116;-74
2021/07/14 03:13:46;;;;;;;11.52;3.95;;;21.60;99.90;;;;;;5032189;28;20482;-77
2021/07/14 03:16:12;;;;;;;17.27;4.57;;;21.60;99.90;;;;;;5032089;28;20432;-75
2021/07/14 03:18:40;;;;;;;7.72;3.53;;;21.60;99.90;;;;;;5031473;28;20036;-75
2021/07/14 03:21:06;;;;;;;14.35;3.72;;;21.60;99.90;;;;;;5014056;28;20428;-76
2021/07/14 03:23:32;;;;;;;22.45;4.65;;;21.60;99.90;;;;;;5031577;28;20042;-73
2021/07/14 03:25:59;;;;;;;15.70;3.35;;;21.60;99.90;;;;;;5031942;28;20021;-74
2021/07/14 03:28:30;;;;;;;10.55;4.00;;;21.60;99.90;;;;;;5032166;28;20080;-75
2021/07/14 03:31:02;;;;;;;8.68;3.72;;;21.50;99.90;;;;;;5031668;28;20045;-74
2021/07/14 03:33:33;;;;;;;17.15;4.47;;;21.60;99.90;;;;;;5013879;28;20033;-74
2021/07/14 03:36:01;;;;;;;15.50;3.92;;;21.60;99.90;;;;;;5031610;28;20018;-74
2021/07/14 03:38:31;;;;;;;9.52;3.92;;;21.60;99.90;;;;;;5031743;28;20050;-74
2021/07/14 03:40:58;;;;;;;12.43;4.90;;;21.50;99.90;;;;;;5031559;28;20806;-74
2021/07/14 03:43:26;;;;;;;7.88;4.03;;;21.50;99.90;;;;;;5033843;28;20052;-73
2021/07/14 03:45:53;;;;;;;13.35;4.07;;;21.50;99.90;;;;;;5035674;28;20381;-75
2021/07/14 03:48:21;;;;;;;13.05;4.35;;;21.60;99.90;;;;;;5027998;28;20025;-75
2021/07/14 03:50:51;;;;;;;25.77;4.55;;;21.60;99.90;;;;;;5030259;28;20403;-74
2021/07/14 03:53:18;;;;;;;11.80;5.07;;;21.60;99.90;;;;;;5035927;28;20021;-75
2021/07/14 03:55:46;;;;;;;16.70;4.85;;;21.60;99.90;;;;;;5036089;28;20029;-74
2021/07/14 03:58:12;;;;;;;16.40;4.03;;;21.60;99.90;;;;;;5035362;28;20022;-77
2021/07/14 04:00:38;;;;;;;13.27;4.28;;;21.60;99.90;;;;;;5035961;28;20053;-75
2021/07/14 04:03:09;;;;;;;12.80;4.47;;;21.60;99.90;;;;;;5035212;28;20036;-75
2021/07/14 04:05:40;;;;;;;13.77;5.90;;;21.60;99.90;;;;;;5035715;28;20029;-75
2021/07/14 04:08:07;;;;;;;15.55;4.63;;;21.70;99.90;;;;;;5035513;28;20369;-75
2021/07/14 04:10:32;;;;;;;17.38;4.85;;;21.70;99.90;;;;;;5035445;28;20065;-75
2021/07/14 04:12:58;;;;;;;14.05;5.13;;;21.70;99.90;;;;;;5035177;28;20496;-75
2021/07/14 04:15:24;;;;;;;25.48;5.97;;;21.80;99.90;;;;;;5035469;28;20040;-75
2021/07/14 04:17:49;;;;;;;12.60;5.38;;;21.70;99.90;;;;;;5035239;28;20037;-78
2021/07/14 04:20:15;;;;;;;26.45;6.28;;;21.80;99.90;;;;;;5035046;28;20089;-80
2021/07/14 04:22:42;;;;;;;10.88;5.28;;;21.90;99.90;;;;;;5035434;28;20022;-80
2021/07/14 04:25:08;;;;;;;20.58;6.45;;;21.90;99.90;;;;;;5034548;28;20095;-81
2021/07/14 04:27:33;;;;;;;15.88;5.68;;;21.90;99.90;;;;;;5035145;28;20029;-77
2021/07/14 04:29:59;;;;;;;14.77;5.35;;;22.00;99.90;;;;;;5034298;28;20501;-78
2021/07/14 04:32:25;;;;;;;21.88;5.93;;;22.00;99.90;;;;;;5033886;28;20021;-74
2021/07/14 04:34:51;;;;;;;19.48;5.90;;;22.00;99.90;;;;;;5033996;28;20091;-80
2021/07/14 04:37:16;;;;;;;24.02;5.68;;;22.00;99.90;;;;;;5033746;28;20100;-77
2021/07/14 04:39:44;;;;;;;18.67;5.88;;;22.10;99.90;;;;;;5033817;28;20056;-78
2021/07/14 04:42:10;;;;;;;20.73;6.47;;;22.20;99.90;;;;;;5033875;28;20018;-78
2021/07/14 04:44:38;;;;;;;18.77;5.60;;;22.20;99.90;;;;;;5033960;28;20048;-75
2021/07/14 04:47:04;;;;;;;17.23;5.05;;;22.30;99.90;;;;;;5034054;28;20056;-77
2021/07/14 04:49:30;;;;;;;17.10;4.80;;;22.30;99.90;;;;;;5033728;28;20504;-74
2021/07/14 04:51:56;;;;;;;20.77;5.53;;;22.50;99.90;;;;;;5033931;28;20029;-76
2021/07/14 04:54:22;;;;;;;20.48;5.10;;;22.70;99.90;;;;;;5033005;28;20079;-80
2021/07/14 04:56:49;;;;;;;20.77;6.55;;;23.00;99.90;;;;;;5033692;28;20053;-76
2021/07/14 04:59:16;;;;;;;14.68;4.97;;;23.60;99.90;;;;;;5033663;28;20029;-75
2021/07/14 05:01:42;;;;;;;22.00;5.05;;;24.30;99.90;;;;;;5033920;28;20025;-75
2021/07/14 05:04:08;;;;;;;21.30;4.80;;;24.90;99.90;;;;;;5033585;28;20423;-78
2021/07/14 05:06:33;;;;;;;20.27;4.97;;;25.40;99.90;;;;;;5033085;28;20079;-77
2021/07/14 05:09:00;;;;;;;19.27;4.05;;;25.90;99.90;;;;;;5033616;28;20083;-75
2021/07/14 05:11:25;;;;;;;15.48;3.85;;;26.60;99.90;;;;;;5007633;28;20053;-76
2021/07/14 05:13:53;;;;;;;17.20;3.78;;;27.10;99.90;;;;;;5013872;28;20033;-82
2021/07/14 05:16:18;;;;;;;21.27;4.22;;;27.50;99.90;;;;;;5013999;28;20018;-75
2021/07/14 05:18:45;;;;;;;16.92;3.78;;;28.00;99.90;;;;;;5013368;28;20137;-75
2021/07/14 05:21:11;;;;;;;11.93;3.60;;;28.50;99.90;;;;;;5012550;28;20052;-75
2021/07/14 05:23:36;;;;;;;14.70;3.95;;;29.10;99.90;;;;;;5013190;28;20510;-75
2021/07/14 05:26:02;;;;;;;10.30;3.97;;;29.60;99.90;;;;;;5014003;28;20478;-81
2021/07/14 05:28:28;;;;;;;21.42;3.97;;;30.20;99.90;;;;;;5013503;28;20044;-77
2021/07/14 05:30:55;;;;;;;14.88;3.97;;;30.60;99.90;;;;;;5012987;28;20550;-84
2021/07/14 05:33:21;;;;;;;12.50;3.95;;;31.20;99.90;;;;;;5013781;28;20089;-78
2021/07/14 05:35:47;;;;;;;10.75;3.50;;;31.50;99.90;;;;;;5013849;28;20091;-74
2021/07/14 05:38:20;;;;;;;14.27;3.90;;;30.60;99.90;;;;;;5013845;28;20113;-77
2021/07/14 05:40:48;;;;;;;26.40;3.90;;;29.10;99.90;;;;;;5013908;28;20037;-78
2021/07/14 05:43:14;;;;;;;17.17;3.47;;;27.70;99.90;;;;;;5013596;28;20037;-76
2021/07/14 05:45:39;;;;;;;22.05;4.72;;;26.70;99.90;;;;;;5013679;28;20030;-76
2021/07/14 05:48:05;;;;;;;12.10;3.75;;;26.20;99.90;;;;;;5013689;28;20037;-76
2021/07/14 05:50:31;;;;;;;12.65;3.70;;;25.70;99.90;;;;;;5009429;28;20106;-75
2021/07/14 05:52:56;;;;;;;17.63;3.60;;;25.90;99.90;;;;;;4993854;28;20022;-75
2021/07/14 05:55:22;;;;;;;14.25;3.45;;;27.50;99.90;;;;;;4992260;28;20038;-75
2021/07/14 05:57:51;;;;;;;14.95;3.85;;;29.30;99.90;;;;;;4993070;28;20537;-76
2021/07/14 06:00:17;;;;;;;18.58;4.30;;;30.50;99.90;;;;;;4993500;28;20026;-76
2021/07/14 06:02:43;;;;;;;15.55;3.75;;;31.40;99.90;;;;;;4999072;28;20022;-76
2021/07/14 06:05:10;;;;;;;11.63;3.10;;;32.50;99.90;;;;;;5012587;28;20032;-78
2021/07/14 06:07:36;;;;;;;15.00;3.67;;;33.00;99.90;;;;;;5012260;28;20026;-76
2021/07/14 06:10:02;;;;;;;10.18;2.17;;;33.10;99.90;;;;;;5013294;28;20037;-78
2021/07/14 06:12:28;;;;;;;9.73;2.83;;;33.60;99.90;;;;;;5013399;28;20024;-77
2021/07/14 06:14:54;;;;;;;23.02;2.78;;;33.70;99.90;;;;;;5013017;28;20120;-78
2021/07/14 06:17:19;;;;;;;6.63;2.70;;;34.50;99.90;;;;;;5013524;28;20030;-78
2021/07/14 06:19:45;;;;;;;11.80;3.00;;;34.60;99.90;;;;;;5013559;28;20466;-78
2021/07/14 06:22:12;;;;;;;13.77;2.70;;;35.30;99.90;;;;;;5014080;28;20028;-78
2021/07/14 06:24:38;;;;;;;9.90;2.50;;;36.00;99.90;;;;;;5013650;28;20092;-77
2021/07/14 06:27:04;;;;;;;15.85;3.22;;;37.00;99.90;;;;;;5013958;28;20018;-78
2021/07/14 06:29:30;;;;;;;10.93;2.58;;;35.70;99.90;;;;;;5014131;28;20057;-78
2021/07/14 06:31:55;;;;;;;9.77;2.80;;;33.60;99.90;;;;;;5014044;28;20058;-78
2021/07/14 06:34:21;;;;;;;8.48;2.80;;;32.60;99.90;;;;;;5013816;28;20062;-78
2021/07/14 06:36:47;;;;;;;14.40;3.05;;;31.90;99.90;;;;;;5013689;28;20024;-76
2021/07/14 06:39:13;;;;;;;9.90;2.83;;;32.60;99.90;;;;;;4995817;28;20029;-77
2021/07/14 06:41:39;;;;;;;12.63;2.80;;;33.70;99.90;;;;;;5013782;28;20406;-78
2021/07/14 06:44:06;;;;;;;7.47;2.45;;;33.80;99.90;;;;;;5013668;28;20478;-79
2021/07/14 06:46:31;;;;;;;14.45;2.63;;;34.30;99.90;;;;;;5013804;28;20482;-77
2021/07/14 06:48:58;;;;;;;14.15;2.97;;;33.00;99.90;;;;;;5013031;28;20030;-78
2021/07/14 06:51:24;;;;;;;19.23;3.38;;;31.70;99.90;;;;;;5013753;28;20434;-77
2021/07/14 06:53:50;;;;;;;19.98;3.90;;;30.60;99.90;;;;;;5013664;28;20034;-78
2021/07/14 06:56:16;;;;;;;12.75;3.17;;;30.30;99.90;;;;;;5013697;28;20105;-78
2021/07/14 06:58:42;;;;;;;12.18;2.08;;;31.30;99.90;;;;;;5013351;28;20497;-77
2021/07/14 07:01:11;;;;;;;11.40;3.22;;;31.00;99.90;;;;;;5013221;28;20057;-78
2021/07/14 07:03:37;;;;;;;12.93;3.30;;;30.50;99.90;;;;;;5012701;28;20053;-78
2021/07/14 07:06:04;;;;;;;14.77;3.47;;;29.90;99.90;;;;;;5013163;28;20034;-78
2021/07/14 07:08:31;;;;;;;20.17;2.97;;;29.50;99.90;;;;;;5013399;28;20025;-78
2021/07/14 07:10:57;;;;;;;19.75;2.92;;;29.30;99.90;;;;;;5013290;28;20057;-78
2021/07/14 07:13:23;;;;;;;14.98;2.72;;;29.60;99.90;;;;;;5013088;28;20045;-78
2021/07/14 07:15:49;;;;;;;14.13;3.20;;;29.60;99.90;;;;;;5013357;28;20196;-76
2021/07/14 07:18:16;;;;;;;10.82;3.10;;;29.40;99.90;;;;;;5012301;28;20021;-78
2021/07/14 07:20:42;;;;;;;17.00;4.28;;;29.60;99.90;;;;;;5012576;28;20018;-78
2021/07/14 07:23:10;;;;;;;13.05;3.50;;;29.70;99.90;;;;;;5012903;28;20076;-77
2021/07/14 07:25:37;;;;;;;23.05;3.83;;;29.40;99.90;;;;;;5012913;28;20072;-80
2021/07/14 07:28:03;;;;;;;16.85;2.75;;;29.00;99.90;;;;;;5012956;28;20026;-79
2021/07/14 07:30:30;;;;;;;18.38;2.95;;;28.60;99.90;;;;;;5012902;28;20053;-77
2021/07/14 07:32:57;;;;;;;18.08;3.38;;;28.00;99.90;;;;;;5013065;28;20034;-77
2021/07/14 07:35:23;;;;;;;13.15;3.28;;;28.00;99.90;;;;;;5013199;28;20044;-77
2021/07/14 07:37:49;;;;;;;14.30;3.35;;;28.20;99.90;;;;;;5011452;28;20741;-77
2021/07/14 07:40:15;;;;;;;16.52;2.88;;;28.60;99.90;;;;;;5012489;28;20101;-77
2021/07/14 07:42:41;;;;;;;12.60;2.33;;;29.00;99.90;;;;;;5013020;28;20022;-77
2021/07/14 07:45:08;;;;;;;20.55;2.78;;;29.20;99.90;;;;;;5012692;28;20030;-76
2021/07/14 07:47:34;;;;;;;21.15;2.83;;;29.40;99.90;;;;;;5013285;28;20030;-77
2021/07/14 07:50:00;;;;;;;19.55;2.78;;;29.50;99.90;;;;;;5012902;28;20075;-77
2021/07/14 07:52:27;;;;;;;19.35;3.05;;;29.50;99.90;;;;;;5012902;28;20373;-77
2021/07/14 07:54:55;;;;;;;9.13;2.03;;;29.80;99.90;;;;;;5012418;28;20045;-78
2021/07/14 07:57:21;;;;;;;10.73;2.22;;;30.20;99.90;;;;;;5012682;28;20495;-77
2021/07/14 07:59:46;;;;;;;17.20;2.92;;;30.10;99.90;;;;;;5011925;28;20122;-77
2021/07/14 08:02:12;;;;;;;18.80;2.85;;;30.10;99.90;;;;;;5005885;28;20026;-77
2021/07/14 08:04:38;;;;;;;11.45;2.95;;;30.40;99.90;;;;;;5006627;28;20022;-77
2021/07/14 08:07:03;;;;;;;14.15;2.80;;;30.40;99.90;;;;;;5007366;28;20022;-77
2021/07/14 08:09:29;;;;;;;11.43;2.55;;;30.20;99.90;;;;;;5010605;28;20080;-77
2021/07/14 08:11:55;;;;;;;8.38;2.17;;;29.90;99.90;;;;;;5002371;28;20042;-77
2021/07/14 08:14:20;;;;;;;9.55;1.80;;;29.70;99.90;;;;;;5002045;28;20117;-76
2021/07/14 08:16:46;;;;;;;19.15;2.85;;;29.90;99.90;;;;;;5000609;28;20031;-77
2021/07/14 08:19:12;;;;;;;12.40;2.33;;;30.10;99.90;;;;;;5005431;28;20034;-77
2021/07/14 08:21:38;;;;;;;11.82;2.13;;;30.30;99.90;;;;;;5005388;28;20029;-77
2021/07/14 08:24:04;;;;;;;11.13;2.22;;;30.20;99.70;;;;;;5008627;28;20049;-77
2021/07/14 08:26:33;;;;;;;8.35;1.98;;;30.20;99.90;;;;;;5008706;28;20378;-77
2021/07/14 08:28:58;;;;;;;18.23;3.15;;;30.20;99.90;;;;;;5004687;28;20030;-77
2021/07/14 08:31:24;;;;;;;10.88;2.60;;;30.40;99.80;;;;;;5005709;28;20030;-77
2021/07/14 08:33:51;;;;;;;8.85;2.35;;;30.40;99.90;;;;;;5008983;28;20086;-77
2021/07/14 08:36:16;;;;;;;11.65;2.22;;;30.40;99.90;;;;;;5009375;28;20022;-74
2021/07/14 08:38:42;;;;;;;15.95;2.38;;;30.70;99.90;;;;;;5004703;28;20356;-76
2021/07/14 08:41:10;;;;;;;17.80;2.47;;;30.90;99.70;;;;;;5002508;28;20447;-77
2021/07/14 08:43:40;;;;;;;6.00;2.13;;;30.90;99.90;;;;;;5003834;28;20053;-76
2021/07/14 08:46:06;;;;;;;13.50;2.85;;;30.70;99.90;;;;;;5008332;28;20290;-77
2021/07/14 08:48:32;;;;;;;13.13;3.38;;;30.70;99.90;;;;;;5003660;28;20463;-76
2021/07/14 08:50:59;;;;;;;11.70;2.22;;;30.40;99.80;;;;;;5004986;28;20060;-77
2021/07/14 08:53:27;;;;;;;13.40;2.55;;;29.90;99.90;;;;;;5002748;28;20533;-76
2021/07/14 08:55:56;;;;;;;16.08;2.45;;;29.40;99.90;;;;;;5000650;28;20037;-76
2021/07/14 08:58:24;;;;;;;15.82;2.60;;;29.40;99.90;;;;;;4995051;28;20507;-76
2021/07/14 09:00:52;;;;;;;14.90;2.72;;;29.40;99.90;;;;;;4997410;28;20034;-75
2021/07/14 09:03:18;;;;;;;8.57;2.25;;;29.30;99.90;;;;;;4997335;28;20018;-75
2021/07/14 09:05:44;;;;;;;13.73;2.85;;;29.50;99.90;;;;;;5003244;28;20026;-75
2021/07/14 09:08:11;;;;;;;12.90;2.50;;;29.60;99.90;;;;;;5002652;28;20463;-76
2021/07/14 09:10:38;;;;;;;16.00;2.90;;;29.60;99.90;;;;;;5004735;28;20030;-76
2021/07/14 09:13:04;;;;;;;12.55;2.72;;;29.80;99.90;;;;;;5003319;28;20076;-77
2021/07/14 09:15:39;;;;;;;27.38;3.33;;;29.60;99.90;;;;;;5002781;28;20112;-77
2021/07/14 09:18:05;;;;;;;26.52;3.10;;;29.50;99.90;;;;;;5004073;28;20014;-74
2021/07/14 09:20:33;;;;;;;14.93;2.58;;;29.40;99.90;;;;;;5003186;28;20109;-76
2021/07/14 09:23:13;;;;;;;19.17;3.03;;;29.50;99.90;;;;;;5001509;28;20029;-76
2021/07/14 09:26:03;;;;;;;19.70;3.40;;;29.70;99.90;;;;;;5001866;28;20026;-74
2021/07/14 09:28:33;;;;;;;18.40;2.95;;;29.90;99.90;;;;;;5003258;28;20157;-76
2021/07/14 09:31:10;;;;;;;23.73;3.30;;;29.90;99.90;;;;;;4986679;28;20025;-76
2021/07/14 09:33:42;;;;;;;10.75;2.88;;;29.80;99.90;;;;;;5003987;28;20014;-75
2021/07/14 09:36:10;;;;;;;19.15;3.72;;;30.00;99.90;;;;;;5002088;28;20022;-75
2021/07/14 09:38:39;;;;;;;15.75;2.92;;;30.00;99.90;;;;;;5000570;28;20025;-76
2021/07/14 09:41:07;;;;;;;14.55;3.33;;;30.10;99.90;;;;;;5005131;28;20025;-76
2021/07/14 09:43:36;;;;;;;17.35;2.85;;;29.90;99.90;;;;;;5003630;28;20050;-76
2021/07/14 09:46:07;;;;;;;18.15;3.10;;;29.60;99.90;;;;;;5004006;28;20379;-76
2021/07/14 09:48:36;;;;;;;15.02;3.13;;;29.50;99.90;;;;;;5005526;28;20432;-74
2021/07/14 09:51:03;;;;;;;14.15;3.05;;;29.50;99.90;;;;;;5004524;28;20107;-74
2021/07/14 09:53:32;;;;;;;20.90;3.50;;;29.70;99.90;;;;;;5004643;28;20512;-75
2021/07/14 09:56:20;;;;;;;16.25;3.50;;;29.80;99.90;;;;;;5005973;28;20041;-75
2021/07/14 09:58:47;;;;;;;13.07;3.45;;;29.70;99.90;;;;;;5005570;28;20027;-74
2021/07/14 10:01:17;;;;;;;11.43;3.22;;;29.80;99.90;;;;;;5003190;28;20337;-73
2021/07/14 10:03:51;;;;;;;24.25;2.90;;;29.50;99.90;;;;;;4996775;28;20161;-74
2021/07/14 10:06:18;;;;;;;24.65;3.15;;;29.20;99.90;;;;;;5005137;28;20024;-73
2021/07/14 10:08:48;;;;;;;15.98;2.63;;;29.20;99.90;;;;;;5002288;28;20479;-74
2021/07/14 10:11:18;;;;;;;17.67;2.90;;;29.00;99.90;;;;;;5001128;28;20025;-73
2021/07/14 10:13:54;;;;;;;15.23;2.88;;;29.00;99.90;;;;;;5002081;28;20034;-73
2021/07/14 10:16:21;;;;;;;17.80;2.60;;;28.90;99.90;;;;;;5005221;28;20112;-73
2021/07/14 10:18:57;;;;;;;16.20;3.03;;;29.00;99.90;;;;;;5004148;28;20021;-74
2021/07/14 10:21:23;;;;;;;19.13;3.08;;;29.00;99.90;;;;;;5005005;28;20044;-74
2021/07/14 10:23:49;;;;;;;9.10;2.40;;;28.90;99.90;;;;;;5001557;28;20046;-76
2021/07/14 10:26:16;;;;;;;24.83;2.72;;;29.10;99.90;;;;;;5000419;28;20025;-73
2021/07/14 10:28:44;;;;;;;11.38;2.53;;;29.10;99.90;;;;;;5006201;28;20084;-77
2021/07/14 10:31:10;;;;;;;14.63;3.60;;;29.00;99.90;;;;;;5004613;28;20029;-73
2021/07/14 10:33:38;;;;;;;9.18;2.15;;;28.90;99.90;;;;;;5009620;28;20032;-77
2021/07/14 10:36:07;;;;;;;13.70;2.90;;;29.10;99.90;;;;;;5004076;28;20036;-73
2021/07/14 10:38:36;;;;;;;20.25;2.75;;;29.20;99.90;;;;;;4993522;28;20053;-76
2021/07/14 10:41:01;;;;;;;14.32;2.95;;;29.40;99.90;;;;;;4999790;28;20042;-75
2021/07/14 10:43:31;;;;;;;13.60;2.97;;;29.60;99.90;;;;;;4983072;28;20030;-74
2021/07/14 10:45:57;;;;;;;12.13;2.80;;;29.60;99.50;;;;;;4993718;28;20027;-76
2021/07/14 10:48:24;;;;;;;17.52;2.90;;;29.20;99.70;;;;;;4993736;28;20138;-75
2021/07/14 10:50:52;;;;;;;15.65;3.47;;;29.10;99.90;;;;;;4996027;28;20057;-74
2021/07/14 10:53:19;;;;;;;17.75;2.80;;;29.00;99.90;;;;;;4991127;28;20491;-75
2021/07/14 10:55:49;;;;;;;23.90;3.10;;;29.00;99.90;;;;;;4998566;28;20041;-74
2021/07/14 10:58:20;;;;;;;18.60;3.42;;;29.20;99.90;;;;;;4999087;28;20022;-74
2021/07/14 11:00:46;;;;;;;24.05;3.55;;;29.30;99.90;;;;;;5003960;28;20022;-76
2021/07/14 11:03:31;;;;;;;16.05;2.95;;;29.40;99.90;;;;;;5003719;28;20034;-74
2021/07/14 11:05:57;;;;;;;10.40;2.05;;;29.50;99.90;;;;;;5009540;28;20021;-76
2021/07/14 11:08:40;;;;;;;14.88;2.75;;;29.60;99.90;;;;;;5003902;28;20506;-74
2021/07/14 11:11:06;;;;;;;18.63;3.03;;;29.40;99.90;;;;;;5007592;28;20030;-74
2021/07/14 11:13:33;;;;;;;13.75;2.25;;;29.30;99.90;;;;;;5010261;28;20028;-74
2021/07/14 11:16:24;;;;;;;17.08;2.85;;;29.10;99.90;;;;;;5010436;28;20030;-74
2021/07/14 11:19:17;;;;;;;17.13;2.15;;;29.00;98.00;;;;;;4993910;28;20465;-74
2021/07/14 11:21:57;;;;;;;18.50;2.10;;;28.70;97.80;;;;;;4996709;28;20121;-75
2021/07/14 11:24:42;;;;;;;16.58;2.33;;;28.70;97.20;;;;;;5006205;28;20050;-74
2021/07/14 11:27:25;;;;;;;14.35;3.45;;;28.50;96.30;;;;;;5000696;28;20470;-74
2021/07/14 11:30:14;;;;;;;15.02;2.70;;;28.40;96.90;;;;;;4992433;28;20026;-73
2021/07/14 11:32:42;;;;;;;17.52;3.00;;;28.70;97.40;;;;;;4984374;28;20038;-74
2021/07/14 11:35:19;;;;;;;9.23;2.05;;;28.80;98.40;;;;;;4999969;28;20895;-73
2021/07/14 11:37:54;;;;;;;12.52;3.53;;;28.80;98.70;;;;;;5008780;28;20018;-75
2021/07/14 11:40:20;;;;;;;10.98;2.38;;;28.60;98.40;;;;;;5012019;28;20378;-75
2021/07/14 11:42:53;;;;;;;11.32;2.67;;;28.50;98.30;;;;;;5012551;28;20022;-74
2021/07/14 11:45:36;;;;;;;10.77;2.33;;;28.60;98.50;;;;;;5005757;28;20026;-73
2021/07/14 11:48:01;;;;;;;16.23;3.20;;;28.50;99.20;;;;;;4997325;28;20023;-74
2021/07/14 11:50:42;;;;;;;11.55;2.58;;;28.30;99.60;;;;;;5003457;28;20030;-74
2021/07/14 11:53:30;;;;;;;13.02;2.60;;;28.30;99.70;;;;;;4997878;28;20014;-73
2021/07/14 11:56:34;;;;;;;18.30;2.45;;;28.30;99.80;;;;;;5001831;28;20035;-74
2021/07/14 11:59:18;;;;;;;11.95;2.63;;;28.10;99.90;;;;;;5005243;28;20022;-75
2021/07/14 12:01:51;;;;;;;13.00;2.83;;;28.10;99.90;;;;;;5002891;28;20018;-75
2021/07/14 12:04:18;;;;;;;15.63;2.90;;;28.00;99.90;;;;;;5003138;28;20064;-73
2021/07/14 12:06:51;;;;;;;14.68;2.38;;;27.80;99.90;;;;;;5002887;28;20101;-75
2021/07/14 12:09:17;;;;;;;11.60;2.25;;;27.80;99.90;;;;;;5014884;28;20100;-74
2021/07/14 12:11:42;;;;;;;12.57;2.45;;;27.80;99.90;;;;;;5007984;28;20471;-74
2021/07/14 12:14:33;;;;;;;13.35;2.90;;;27.80;99.90;;;;;;5015741;28;20382;-74
2021/07/14 12:17:03;;;;;;;18.77;2.72;;;27.80;99.90;;;;;;4987198;28;20515;-76
2021/07/14 12:19:34;;;;;;;16.35;3.22;;;28.00;99.90;;;;;;5004974;28;20022;-75
2021/07/14 12:22:18;;;;;;;;;;;28.00;99.90;;;;;;5001312;28;20026;-75
2021/07/14 12:25:08;;;;;;;21.33;4.25;;;28.10;99.80;;;;;;4995011;28;19954;-76
2021/07/14 12:27:35;;;;;;;10.10;2.72;;;28.20;99.90;;;;;;5006018;28;20022;-76
2021/07/14 12:30:16;;;;;;;12.10;2.90;;;28.00;99.80;;;;;;5004499;28;20045;-74
2021/07/14 12:32:52;;;;;;;13.60;4.13;;;27.90;99.90;;;;;;5006994;28;20455;-74
2021/07/14 12:35:30;;;;;;;15.80;3.38;;;27.80;99.90;;;;;;5013097;28;20037;-74
2021/07/14 12:37:57;;;;;;;15.68;2.85;;;27.80;99.90;;;;;;4999333;28;20113;-74
2021/07/14 12:40:32;;;;;;;23.67;3.90;;;27.90;99.90;;;;;;4987944;28;20454;-74
2021/07/14 12:43:01;;;;;;;16.63;2.72;;;28.00;99.90;;;;;;5007737;28;20046;-74
2021/07/14 12:45:32;;;;;;;15.27;2.55;;;28.10;99.90;;;;;;5009648;28;20175;-74
2021/07/14 12:48:06;;;;;;;23.30;3.17;;;28.00;99.90;;;;;;5008120;28;20010;-74
2021/07/14 12:50:33;;;;;;;19.83;2.42;;;27.90;99.90;;;;;;5008754;28;20022;-74
2021/07/14 12:53:01;;;;;;;17.00;3.42;;;27.90;99.50;;;;;;5007193;28;20010;-74
2021/07/14 12:55:28;;;;;;;11.90;2.70;;;27.80;99.60;;;;;;5006039;28;20391;-76
2021/07/14 12:58:03;;;;;;;19.67;3.13;;;27.70;99.10;;;;;;5006535;28;20033;-74
2021/07/14 13:00:29;;;;;;;9.90;1.98;;;27.40;99.60;;;;;;5005874;28;20026;-75